Time;durP1;ratioP1;P1;durP2;ratioP2;P2;SDS_P1;SDS_P2;PMS_P1;PMS_P2;Temp;Humidity;BMP_temperature;BMP_pressure;BME280_temperature;BME280_humidity;BME280_pressure;Samples;Min_cycle;Max_cycle;Signal;HPM_P1;HPM_P2
2021/08/04 00:00:28;;;;;;;4.65;2.10;;;;;;;21.29;70.50;100616.81;5037869;28;20059;-62
2021/08/04 00:02:55;;;;;;;4.28;2.10;;;;;;;21.29;70.73;100605.47;5034746;28;20124;-61
2021/08/04 00:05:22;;;;;;;6.03;2.03;;;;;;;21.43;70.52;100616.53;5036129;28;20040;-62
2021/08/04 00:07:49;;;;;;;3.90;1.80;;;;;;;21.38;70.53;100626.13;5044192;28;20125;-61
2021/08/04 00:10:17;;;;;;;4.47;2.42;;;;;;;21.25;70.99;100608.19;5043028;28;20136;-60
2021/08/04 00:12:44;;;;;;;4.22;1.75;;;;;;;21.39;70.77;100615.56;5039912;28;20149;-64
2021/08/04 00:15:14;;;;;;;6.32;2.00;;;;;;;21.38;70.99;100613.94;5043359;28;20132;-64
2021/08/04 00:17:42;;;;;;;7.88;2.10;;;;;;;21.33;71.06;100616.94;5036052;28;20263;-63
2021/08/04 00:20:10;;;;;;;4.82;2.15;;;;;;;21.34;71.05;100622.31;5041387;28;20123;-63
2021/08/04 00:22:37;;;;;;;4.28;2.00;;;;;;;21.32;70.90;100616.13;5029838;28;21012;-64
2021/08/04 00:25:05;;;;;;;7.75;2.28;;;;;;;21.40;71.24;100617.22;5032356;28;20053;-64
2021/08/04 00:27:32;;;;;;;4.93;1.95;;;;;;;21.14;71.04;100566.41;5040832;28;20128;-63
2021/08/04 00:29:58;;;;;;;8.60;2.38;;;;;;;21.44;70.91;100616.19;5040010;28;20095;-62
2021/08/04 00:32:25;;;;;;;4.25;2.45;;;;;;;21.43;70.86;100608.81;5036051;28;20132;-62
2021/08/04 00:34:52;;;;;;;5.10;2.30;;;;;;;21.42;71.00;100612.84;5041055;28;20456;-64
2021/08/04 00:37:19;;;;;;;5.82;2.50;;;;;;;21.41;71.09;100613.22;5054398;28;20126;-68
2021/08/04 00:39:46;;;;;;;5.50;2.15;;;;;;;21.38;71.21;100606.22;5044335;28;20568;-68
2021/08/04 00:42:19;;;;;;;3.90;2.30;;;;;;;21.26;71.35;100595.66;5050180;28;20444;-69
2021/08/04 00:44:47;;;;;;;6.30;2.10;;;;;;;21.23;71.21;100581.31;5036095;28;20176;-63
2021/08/04 00:47:14;;;;;;;11.32;2.55;;;;;;;21.31;71.27;100591.75;5040923;28;20045;-64
2021/08/04 00:49:41;;;;;;;8.35;2.35;;;;;;;21.34;71.17;100593.06;5050407;28;20549;-64
2021/08/04 00:52:08;;;;;;;6.20;2.47;;;;;;;21.32;71.07;100599.06;5053730;28;20073;-60
2021/08/04 00:54:36;;;;;;;5.18;2.35;;;;;;;21.16;71.26;100586.72;5040379;28;20052;-62
2021/08/04 00:57:03;;;;;;;6.20;2.45;;;;;;;21.04;71.32;100588.38;5046167;28;20136;-62
2021/08/04 00:59:30;;;;;;;3.83;1.98;;;;;;;20.96;71.63;100588.47;5048293;28;20139;-62
2021/08/04 01:02:10;;;;;;;7.82;2.13;;;;;;;20.78;71.39;100563.09;5038850;28;20383;-64
2021/08/04 01:05:10;;;;;;;2.63;1.50;;;;;;;20.80;72.05;100576.94;5049997;28;20041;-63
2021/08/04 01:07:49;;;;;;;3.65;1.65;;;;;;;20.75;71.51;100571.47;5057574;28;20124;-66
2021/08/04 01:10:27;;;;;;;;;;;;;;;20.70;71.06;100568.84;5054108;28;20485;-63
2021/08/04 01:12:56;;;;;;;5.18;1.60;;;;;;;20.68;71.98;100568.38;5039681;28;19975;-65
2021/08/04 01:15:24;;;;;;;4.53;1.40;;;;;;;20.66;72.17;100587.75;5035424;28;20156;-62
2021/08/04 01:17:53;;;;;;;3.28;1.50;;;;;;;20.45;72.47;100553.72;5041121;28;20140;-63
2021/08/04 01:20:25;;;;;;;2.53;1.50;;;;;;;20.71;72.66;100579.03;5039816;28;20122;-65
2021/08/04 01:23:17;;;;;;;3.30;1.38;;;;;;;20.76;72.49;100575.97;5032516;28;20136;-66
2021/08/04 01:25:58;;;;;;;2.67;1.58;;;;;;;20.66;72.61;100571.56;5038277;28;20140;-61
2021/08/04 01:28:43;;;;;;;2.83;1.50;;;;;;;20.72;72.71;100575.03;5044657;28;20045;-62
2021/08/04 01:31:13;;;;;;;2.63;1.17;;;;;;;20.68;73.08;100586.22;5039866;28;20553;-66
2021/08/04 01:33:44;;;;;;;1.70;1.02;;;;;;;20.63;72.84;100572.25;5050468;28;20053;-64
2021/08/04 01:36:12;;;;;;;2.55;1.15;;;;;;;20.45;72.94;100560.22;5038113;28;20572;-61
2021/08/04 01:38:40;;;;;;;1.67;0.80;;;;;;;20.50;73.34;100574.19;5050732;28;20095;-62
2021/08/04 01:41:09;;;;;;;2.38;1.15;;;;;;;20.43;73.42;100578.75;5036886;28;20128;-63
2021/08/04 01:43:37;;;;;;;2.80;1.00;;;;;;;20.42;73.61;100577.09;5040285;28;20461;-64
2021/08/04 01:46:06;;;;;;;2.75;1.30;;;;;;;20.15;73.70;100528.25;5063620;28;20135;-64
2021/08/04 01:48:35;;;;;;;3.38;1.20;;;;;;;20.33;73.79;100557.31;5041727;28;20037;-63
2021/08/04 01:51:03;;;;;;;2.47;1.33;;;;;;;20.39;74.14;100561.59;5036284;28;20058;-64
2021/08/04 01:53:32;;;;;;;3.67;1.50;;;;;;;20.37;74.04;100563.94;5042004;28;20520;-64
2021/08/04 01:55:59;;;;;;;4.78;1.67;;;;;;;20.36;74.06;100551.75;5034551;28;20076;-64
2021/08/04 01:58:26;;;;;;;3.42;1.60;;;;;;;20.36;73.84;100557.44;5037634;28;20045;-64
2021/08/04 02:00:53;;;;;;;3.33;1.45;;;;;;;20.39;74.01;100567.28;5044565;28;20137;-64
2021/08/04 02:03:20;;;;;;;3.25;1.73;;;;;;;20.19;74.24;100532.06;5034260;28;20042;-64
2021/08/04 02:05:48;;;;;;;3.65;1.60;;;;;;;20.43;74.18;100571.06;5038548;28;20073;-63
2021/08/04 02:08:42;;;;;;;4.68;1.80;;;;;;;20.41;74.05;100564.94;5033032;28;20161;-64
2021/08/04 02:11:19;;;;;;;3.63;1.55;;;;;;;20.36;74.55;100557.44;5041704;28;20136;-62
2021/08/04 02:13:53;;;;;;;6.10;2.22;;;;;;;20.42;74.57;100563.75;5047888;28;20157;-62
2021/08/04 02:16:30;;;;;;;7.95;2.00;;;;;;;20.42;74.58;100575.09;5038567;28;20042;-61
2021/08/04 02:19:25;;;;;;;10.75;2.75;;;;;;;20.25;74.28;100555.38;5043224;28;20489;-60
2021/08/04 02:22:00;;;;;;;10.60;2.92;;;;;;;20.30;74.33;100567.31;5040920;28;20072;-61
2021/08/04 02:24:31;;;;;;;6.68;2.30;;;;;;;20.36;74.30;100563.09;5039076;28;20136;-63
2021/08/04 02:27:00;;;;;;;4.85;2.00;;;;;;;20.30;74.55;100558.81;5038815;28;20131;-63
2021/08/04 02:29:32;;;;;;;7.55;2.80;;;;;;;20.28;74.48;100557.53;5050306;28;20841;-63
2021/08/04 02:32:01;;;;;;;6.97;2.40;;;;;;;20.34;74.43;100565.47;5047497;28;20141;-63
2021/08/04 02:34:28;;;;;;;2.53;1.70;;;;;;;20.31;74.64;100559.69;5040071;28;20136;-64
2021/08/04 02:36:55;;;;;;;6.18;2.33;;;;;;;20.33;74.61;100563.81;5034608;28;20049;-66
2021/08/04 02:39:23;;;;;;;10.85;2.25;;;;;;;20.38;74.53;100565.63;5043818;28;20485;-66
2021/08/04 02:41:50;;;;;;;8.30;3.10;;;;;;;20.40;74.59;100563.25;5050497;28;20076;-65
2021/08/04 02:44:18;;;;;;;6.45;2.83;;;;;;;20.46;74.70;100564.69;5032592;28;20132;-64
2021/08/04 02:46:46;;;;;;;11.50;2.47;;;;;;;20.48;74.49;100553.84;5049291;28;20136;-64
2021/08/04 02:49:15;;;;;;;14.48;3.38;;;;;;;20.45;74.54;100548.88;5035417;28;20579;-64
2021/08/04 02:51:42;;;;;;;14.15;3.22;;;;;;;20.47;74.41;100562.69;5047229;28;20132;-63
2021/08/04 02:54:13;;;;;;;16.45;2.90;;;;;;;20.26;74.42;100532.34;5034984;28;20133;-66
2021/08/04 02:56:41;;;;;;;5.97;2.55;;;;;;;20.38;74.51;100565.63;5037503;28;20052;-64
2021/08/04 02:59:08;;;;;;;7.80;2.95;;;;;;;20.35;74.62;100571.97;5029698;28;20163;-63
2021/08/04 03:01:35;;;;;;;5.85;2.60;;;;;;;20.32;74.68;100569.84;5036469;28;20128;-61
2021/08/04 03:04:02;;;;;;;18.00;3.65;;;;;;;20.29;74.73;100562.84;5041335;28;20045;-61
2021/08/04 03:06:29;;;;;;;13.63;3.05;;;;;;;20.21;74.74;100554.41;5038797;28;20132;-60
2021/08/04 03:08:56;;;;;;;8.00;3.15;;;;;;;20.26;74.88;100557.84;5058783;28;20080;-63
2021/08/04 03:11:23;;;;;;;13.25;3.38;;;;;;;20.17;74.73;100542.09;5032855;28;20132;-64
2021/08/04 03:13:49;;;;;;;8.02;3.30;;;;;;;20.26;74.97;100552.19;5042035;28;20132;-67
2021/08/04 03:16:16;;;;;;;8.05;2.92;;;;;;;20.26;75.02;100552.19;5038951;28;20131;-65
2021/08/04 03:18:43;;;;;;;9.20;3.10;;;;;;;20.26;74.90;100543.69;5054680;28;20095;-64
2021/08/04 03:21:10;;;;;;;6.53;2.83;;;;;;;20.25;75.13;100538.38;5032329;28;20084;-63
2021/08/04 03:23:37;;;;;;;8.32;2.63;;;;;;;20.20;75.35;100539.38;5038114;28;20412;-65
2021/08/04 03:26:04;;;;;;;5.93;2.08;;;;;;;20.28;74.75;100549.03;5041609;28;20400;-66
2021/08/04 03:28:30;;;;;;;6.65;2.35;;;;;;;20.30;75.17;100546.66;5037673;28;20075;-73
2021/08/04 03:30:57;;;;;;;5.40;2.70;;;;;;;20.34;75.23;100551.31;5043012;28;20141;-67
2021/08/04 03:33:24;;;;;;;5.85;2.50;;;;;;;20.35;75.41;100549.28;5063066;28;20221;-69
2021/08/04 03:35:51;;;;;;;5.88;3.05;;;;;;;20.43;75.20;100551.22;5059847;28;20404;-68
2021/08/04 03:38:18;;;;;;;7.97;2.30;;;;;;;20.45;75.23;100548.03;5047086;28;20139;-69
2021/08/04 03:40:44;;;;;;;6.05;2.00;;;;;;;20.44;75.43;100540.69;5037991;28;20132;-69
2021/08/04 03:43:11;;;;;;;7.05;2.60;;;;;;;20.53;75.17;100544.31;5031099;28;20083;-70
2021/08/04 03:45:39;;;;;;;4.30;2.03;;;;;;;20.57;75.19;100542.44;5045158;28;20075;-74
2021/08/04 03:48:05;;;;;;;5.47;2.15;;;;;;;20.58;75.24;100547.78;5051108;28;20073;-75
2021/08/04 03:50:32;;;;;;;6.22;2.40;;;;;;;20.53;75.15;100536.63;5043816;28;20128;-70
2021/08/04 03:52:59;;;;;;;6.47;2.50;;;;;;;20.53;75.30;100539.47;5033485;28;20136;-69
2021/08/04 03:55:26;;;;;;;8.20;2.20;;;;;;;20.49;75.21;100526.31;5032616;28;20135;-69
2021/08/04 03:57:53;;;;;;;5.60;2.10;;;;;;;20.54;74.93;100529.78;5032053;28;20142;-68
2021/08/04 04:00:19;;;;;;;6.53;2.05;;;;;;;20.65;74.90;100543.53;5041971;28;20132;-68
2021/08/04 04:02:46;;;;;;;3.58;1.75;;;;;;;20.59;75.07;100543.75;5058948;28;20127;-67
2021/08/04 04:05:14;;;;;;;4.80;2.28;;;;;;;20.54;75.11;100529.78;5034627;28;20731;-68
2021/08/04 04:07:41;;;;;;;7.95;2.08;;;;;;;20.61;75.18;100539.72;5046157;28;20460;-63
2021/08/04 04:10:09;;;;;;;4.68;2.45;;;;;;;20.57;75.19;100523.41;5039468;28;20469;-65
2021/08/04 04:12:36;;;;;;;4.13;2.00;;;;;;;20.63;75.23;100540.22;5038951;28;20129;-68
2021/08/04 04:15:04;;;;;;;4.55;2.33;;;;;;;20.58;75.27;100536.44;5035747;28;20049;-64
2021/08/04 04:17:31;;;;;;;5.05;2.33;;;;;;;20.51;75.50;100524.81;5047227;28;20045;-65
2021/08/04 04:19:58;;;;;;;8.38;2.95;;;;;;;20.64;75.42;100533.34;5046927;28;20501;-63
2021/08/04 04:22:25;;;;;;;4.35;1.95;;;;;;;20.68;75.27;100537.16;5036397;28;20474;-63
2021/08/04 04:24:52;;;;;;;6.35;2.75;;;;;;;20.61;75.15;100528.38;5041254;28;20080;-63
2021/08/04 04:27:18;;;;;;;6.03;2.20;;;;;;;20.69;75.18;100524.66;5043186;28;20472;-63
2021/08/04 04:29:45;;;;;;;3.25;1.55;;;;;;;20.73;75.04;100528.44;5041712;28;20553;-62
2021/08/04 04:32:12;;;;;;;3.13;1.67;;;;;;;20.84;75.11;100543.84;5039714;28;20905;-63
2021/08/04 04:34:39;;;;;;;4.75;1.60;;;;;;;20.87;75.44;100537.47;5043718;28;20057;-65
2021/08/04 04:37:06;;;;;;;4.53;1.65;;;;;;;20.99;74.77;100545.16;5046025;28;20049;-63
2021/08/04 04:39:33;;;;;;;4.57;1.98;;;;;;;20.92;74.91;100537.25;5048948;28;20053;-63
2021/08/04 04:42:00;;;;;;;4.32;1.70;;;;;;;20.89;74.48;100537.09;5035409;28;20041;-63
2021/08/04 04:44:27;;;;;;;5.78;1.70;;;;;;;20.86;74.75;100540.66;5035443;28;20081;-64
2021/08/04 04:46:54;;;;;;;5.90;1.90;;;;;;;20.84;74.61;100541.00;5047851;28;20128;-65
2021/08/04 04:49:20;;;;;;;5.97;2.08;;;;;;;20.78;74.75;100539.56;5046897;28;20151;-64
2021/08/04 04:51:47;;;;;;;8.68;2.10;;;;;;;20.82;74.58;100546.22;5051548;28;20136;-65
2021/08/04 04:54:14;;;;;;;5.90;2.40;;;;;;;20.83;74.78;100533.66;5040525;28;20049;-65
2021/08/04 04:56:41;;;;;;;10.60;2.83;;;;;;;20.89;74.50;100551.28;5039880;28;20069;-65
2021/08/04 04:59:08;;;;;;;7.13;3.13;;;;;;;20.92;74.46;100551.44;5038645;28;20132;-65
2021/08/04 05:01:35;;;;;;;6.32;2.42;;;;;;;21.01;74.39;100554.16;5037644;28;20072;-65
2021/08/04 05:04:02;;;;;;;8.63;2.67;;;;;;;20.96;74.45;100543.06;5065070;28;20378;-65
2021/08/04 05:06:30;;;;;;;5.50;2.85;;;;;;;20.93;74.44;100558.78;5049035;28;20136;-65
2021/08/04 05:08:57;;;;;;;9.40;3.35;;;;;;;20.92;74.34;100562.81;5034761;28;20427;-63
2021/08/04 05:11:23;;;;;;;5.85;2.40;;;;;;;20.73;74.46;100526.41;5047620;28;20164;-67
2021/08/04 05:13:50;;;;;;;4.82;2.17;;;;;;;20.92;74.46;100557.13;5050630;28;20068;-67
2021/08/04 05:16:17;;;;;;;7.47;2.65;;;;;;;20.90;74.54;100544.44;5043757;28;20129;-61
2021/08/04 05:18:44;;;;;;;9.40;2.97;;;;;;;20.89;74.48;100552.16;5043602;28;20045;-66
2021/08/04 05:21:11;;;;;;;7.43;3.05;;;;;;;20.94;74.28;100562.44;5039691;28;20076;-62
2021/08/04 05:23:38;;;;;;;8.57;3.25;;;;;;;20.85;74.27;100551.16;5052748;28;20080;-63
2021/08/04 05:26:05;;;;;;;7.20;2.92;;;;;;;20.79;74.54;100541.22;5034790;28;20406;-63
2021/08/04 05:28:32;;;;;;;6.88;2.78;;;;;;;20.90;74.38;100559.47;5046900;28;20561;-64
2021/08/04 05:30:59;;;;;;;7.38;3.00;;;;;;;20.97;74.56;100553.22;5043307;28;20389;-63
2021/08/04 05:33:26;;;;;;;5.80;2.45;;;;;;;20.92;74.44;100551.44;5040572;28;20508;-64
2021/08/04 05:35:53;;;;;;;6.97;2.55;;;;;;;20.95;74.46;100556.41;5057384;28;20454;-62
2021/08/04 05:38:19;;;;;;;5.00;2.15;;;;;;;20.94;74.53;100562.44;5051812;28;20123;-64
2021/08/04 05:40:46;;;;;;;5.80;2.38;;;;;;;20.98;74.69;100564.22;5041528;28;20076;-59
2021/08/04 05:43:13;;;;;;;6.72;2.53;;;;;;;20.96;74.71;100552.41;5048641;28;20131;-64
2021/08/04 05:45:40;;;;;;;7.55;2.50;;;;;;;20.98;74.42;100552.84;5037714;28;20136;-60
2021/08/04 05:48:07;;;;;;;6.53;1.90;;;;;;;21.02;74.55;100562.31;5036335;28;20148;-67
2021/08/04 05:50:34;;;;;;;5.72;2.28;;;;;;;21.01;74.16;100559.84;5049013;28;20136;-61
2021/08/04 05:53:02;;;;;;;5.15;2.33;;;;;;;20.74;74.23;100511.03;5034406;28;20140;-63
2021/08/04 05:55:29;;;;;;;7.22;3.00;;;;;;;21.05;74.41;100564.47;5035330;28;20056;-61
2021/08/04 05:57:56;;;;;;;7.97;2.47;;;;;;;21.03;74.47;100561.16;5033053;28;20076;-61
2021/08/04 06:00:22;;;;;;;7.88;2.53;;;;;;;21.09;74.46;100577.97;5036580;28;20128;-64
2021/08/04 06:02:49;;;;;;;6.63;2.85;;;;;;;21.08;74.26;100582.00;5043821;28;20132;-63
2021/08/04 06:05:18;;;;;;;8.02;2.65;;;;;;;21.01;74.51;100574.88;5037335;28;20065;-63
2021/08/04 06:07:44;;;;;;;6.40;2.92;;;;;;;21.06;74.63;100582.34;5038880;28;20123;-65
2021/08/04 06:10:12;;;;;;;9.65;3.25;;;;;;;21.04;74.83;100590.38;5045468;28;20115;-69
2021/08/04 06:12:39;;;;;;;9.30;2.70;;;;;;;21.04;74.94;100588.38;5036058;28;20076;-64
2021/08/04 06:15:07;;;;;;;12.70;3.28;;;;;;;21.03;75.21;100581.03;5047825;28;20378;-64
2021/08/04 06:17:34;;;;;;;6.47;2.72;;;;;;;21.10;74.90;100602.34;5037534;28;20045;-64
2021/08/04 06:20:02;;;;;;;6.10;2.70;;;;;;;21.09;75.04;100590.16;5049312;28;20052;-63
2021/08/04 06:22:29;;;;;;;12.55;3.53;;;;;;;21.09;75.07;100606.34;5041824;28;20049;-62
2021/08/04 06:24:56;;;;;;;13.45;4.25;;;;;;;21.08;75.19;100601.88;5051713;28;20175;-63
2021/08/04 06:27:23;;;;;;;24.20;5.72;;;;;;;21.08;75.24;100601.88;5052856;28;20131;-63
2021/08/04 06:29:50;;;;;;;20.63;5.45;;;;;;;21.00;75.00;100604.44;5068294;28;20081;-62
2021/08/04 06:32:16;;;;;;;14.05;4.47;;;;;;;21.06;75.13;100620.09;5037739;28;20073;-63
2021/08/04 06:34:43;;;;;;;32.33;5.88;;;;;;;20.95;74.89;100603.81;5036965;28;20043;-63
2021/08/04 06:37:10;;;;;;;24.63;5.82;;;;;;;21.03;75.05;100626.47;5036420;28;20124;-63
2021/08/04 06:39:37;;;;;;;19.27;4.90;;;;;;;21.00;74.88;100632.00;5034271;28;20042;-62
2021/08/04 06:42:12;;;;;;;23.85;4.70;;;;;;;21.08;75.11;100627.41;5049811;28;20045;-63
2021/08/04 06:44:40;;;;;;;29.08;4.53;;;;;;;21.01;74.66;100620.28;5072730;28;20040;-64
2021/08/04 06:47:07;;;;;;;33.90;5.20;;;;;;;20.98;74.78;100623.81;5045328;28;20120;-63
2021/08/04 06:49:34;;;;;;;25.33;5.03;;;;;;;21.12;74.81;100639.72;5051292;28;20076;-63
2021/08/04 06:52:01;;;;;;;16.08;3.53;;;;;;;21.17;74.75;100642.38;5046652;28;20048;-62
2021/08/04 06:54:28;;;;;;;18.58;4.07;;;;;;;21.23;74.66;100640.94;5046059;28;20072;-61
2021/08/04 06:56:54;;;;;;;19.05;3.50;;;;;;;21.21;74.85;100646.97;5050761;28;20531;-61
2021/08/04 06:59:21;;;;;;;8.85;2.72;;;;;;;21.17;74.60;100645.22;5042009;28;20045;-65
2021/08/04 07:01:48;;;;;;;15.20;2.35;;;;;;;21.23;74.84;100646.63;5042619;28;20093;-61
2021/08/04 07:04:16;;;;;;;18.38;3.22;;;;;;;21.23;74.64;100627.59;5030889;28;20049;-62
2021/08/04 07:07:00;;;;;;;13.50;2.80;;;;;;;21.21;74.41;100637.63;5042645;28;20115;-61
2021/08/04 07:09:27;;;;;;;4.28;1.80;;;;;;;21.17;74.66;100631.00;5033851;28;20548;-62
2021/08/04 07:11:54;;;;;;;9.90;2.50;;;;;;;21.18;74.67;100641.19;5035493;28;20084;-62
2021/08/04 07:14:21;;;;;;;5.85;2.60;;;;;;;21.12;74.31;100628.38;5032664;28;20524;-62
2021/08/04 07:16:49;;;;;;;5.53;2.45;;;;;;;21.20;74.52;100630.31;5033109;28;20128;-62
2021/08/04 07:19:16;;;;;;;18.15;2.78;;;;;;;21.13;74.44;100627.19;5038817;28;20049;-61
2021/08/04 07:21:44;;;;;;;3.60;1.85;;;;;;;21.24;74.64;100634.09;5052888;28;20408;-62
2021/08/04 07:24:11;;;;;;;9.00;2.63;;;;;;;21.29;74.31;100653.75;5051530;28;20132;-62
2021/08/04 07:26:41;;;;;;;5.80;2.80;;;;;;;21.19;74.75;100640.00;5052583;28;20091;-62
2021/08/04 07:29:08;;;;;;;11.32;2.83;;;;;;;21.26;74.63;100652.47;5043412;28;20128;-63
2021/08/04 07:31:36;;;;;;;5.72;2.70;;;;;;;21.28;74.94;100654.94;5051296;28;20492;-63
2021/08/04 07:34:03;;;;;;;10.90;3.00;;;;;;;21.25;75.16;100644.28;5051559;28;20103;-63
2021/08/04 07:36:30;;;;;;;5.40;2.38;;;;;;;21.48;75.07;100670.28;5052372;28;20124;-62
2021/08/04 07:38:57;;;;;;;5.05;2.55;;;;;;;21.45;74.83;100642.59;5051834;28;20123;-62
2021/08/04 07:41:24;;;;;;;6.70;2.60;;;;;;;21.66;74.84;100671.75;5051196;28;20123;-62
2021/08/04 07:43:50;;;;;;;4.68;2.00;;;;;;;21.71;74.62;100667.84;5052588;28;20044;-61
2021/08/04 07:46:17;;;;;;;4.45;2.25;;;;;;;21.69;74.69;100676.72;5033718;28;20084;-62
2021/08/04 07:48:45;;;;;;;4.65;2.25;;;;;;;21.69;74.65;100658.84;5045071;28;20049;-62
2021/08/04 07:51:12;;;;;;;5.28;2.13;;;;;;;21.88;74.44;100690.38;5051933;28;20099;-62
2021/08/04 07:53:39;;;;;;;4.82;2.30;;;;;;;21.99;74.72;100687.91;5052132;28;20053;-61
2021/08/04 07:56:07;;;;;;;6.03;2.33;;;;;;;22.12;74.34;100692.41;5051246;28;20068;-62
2021/08/04 07:58:34;;;;;;;5.00;2.28;;;;;;;22.23;74.03;100684.25;5052079;28;20041;-61
2021/08/04 08:01:01;;;;;;;7.32;2.78;;;;;;;22.28;74.18;100689.69;5046424;28;20064;-62
2021/08/04 08:03:28;;;;;;;4.20;2.30;;;;;;;22.39;73.83;100696.56;5046839;28;20041;-63
2021/08/04 08:05:55;;;;;;;4.55;2.45;;;;;;;22.31;73.97;100674.75;5038067;28;20045;-61
2021/08/04 08:08:22;;;;;;;5.45;2.38;;;;;;;22.31;73.68;100669.06;5050870;28;20132;-62
2021/08/04 08:10:50;;;;;;;3.85;1.98;;;;;;;22.48;73.60;100702.94;5050816;28;20493;-62
2021/08/04 08:13:17;;;;;;;4.68;2.03;;;;;;;22.54;73.36;100705.56;5040327;28;20045;-62
2021/08/04 08:15:44;;;;;;;6.35;2.63;;;;;;;22.57;73.33;100690.63;5040691;28;20049;-62
2021/08/04 08:18:12;;;;;;;4.63;2.03;;;;;;;22.72;72.89;100695.56;5048559;28;20045;-62
2021/08/04 08:20:40;;;;;;;5.75;2.92;;;;;;;22.87;72.54;100714.75;5047908;28;20128;-62
2021/08/04 08:23:08;;;;;;;6.20;2.10;;;;;;;22.94;72.50;100717.84;5032958;28;20076;-63
2021/08/04 08:25:36;;;;;;;4.43;1.90;;;;;;;23.03;72.29;100725.41;5050001;28;20465;-62
2021/08/04 08:28:03;;;;;;;5.75;2.50;;;;;;;23.11;72.08;100721.56;5050510;28;20160;-62
2021/08/04 08:30:31;;;;;;;6.45;2.42;;;;;;;23.17;72.19;100723.78;5041839;28;20064;-61
2021/08/04 08:32:58;;;;;;;6.57;2.10;;;;;;;23.28;71.99;100724.13;5042980;28;20435;-62
2021/08/04 08:35:25;;;;;;;5.65;2.30;;;;;;;23.39;71.62;100719.56;5043812;28;20053;-61
2021/08/04 08:37:52;;;;;;;4.30;2.13;;;;;;;23.53;71.31;100716.28;5041999;28;20128;-62
2021/08/04 08:40:18;;;;;;;4.40;2.28;;;;;;;23.64;70.99;100731.66;5047410;28;20132;-62
2021/08/04 08:42:46;;;;;;;4.63;2.85;;;;;;;23.71;71.44;100727.38;5034540;28;20073;-62
2021/08/04 08:45:13;;;;;;;5.40;2.08;;;;;;;23.82;71.15;100720.75;5032098;28;20050;-62
2021/08/04 08:47:42;;;;;;;4.22;1.67;;;;;;;24.15;70.76;100722.44;5031550;28;20544;-62
2021/08/04 08:50:15;;;;;;;3.78;2.00;;;;;;;24.43;70.34;100725.19;5031602;28;20053;-62
2021/08/04 08:52:42;;;;;;;3.83;2.30;;;;;;;24.83;69.54;100724.91;5037811;28;20473;-62
2021/08/04 08:55:11;;;;;;;4.50;2.30;;;;;;;25.19;68.61;100734.28;5032441;28;20136;-61
2021/08/04 08:57:38;;;;;;;4.85;2.10;;;;;;;25.32;68.30;100728.44;5039467;28;20136;-62
2021/08/04 09:00:06;;;;;;;5.20;1.95;;;;;;;25.24;67.97;100722.56;5047219;28;20060;-62
2021/08/04 09:02:33;;;;;;;3.13;1.67;;;;;;;25.09;67.76;100737.72;5052593;28;20528;-62
2021/08/04 09:05:07;;;;;;;3.95;2.33;;;;;;;24.89;67.66;100722.59;5045987;28;20045;-62
2021/08/04 09:07:39;;;;;;;2.80;1.48;;;;;;;24.77;67.61;100717.84;5034494;28;20088;-62
2021/08/04 09:10:31;;;;;;;3.42;1.20;;;;;;;24.64;67.68;100719.16;5042181;28;20056;-61
2021/08/04 09:13:01;;;;;;;5.40;1.50;;;;;;;24.68;66.99;100717.19;5032220;28;20494;-61
2021/08/04 09:15:29;;;;;;;;;;;;;;;24.70;68.48;100714.81;5035990;28;20190;-61
2021/08/04 09:18:01;;;;;;;1.90;1.30;;;;;;;25.05;67.57;100723.34;5048085;28;19925;-61
2021/08/04 09:20:29;;;;;;;4.13;1.50;;;;;;;25.76;66.81;100714.59;5053093;28;20057;-62
2021/08/04 09:23:01;;;;;;;3.75;1.50;;;;;;;26.48;65.09;100699.50;5054556;28;20053;-62
2021/08/04 09:25:30;;;;;;;1.42;1.02;;;;;;;27.06;63.59;100699.13;5061168;28;20490;-61
2021/08/04 09:27:59;;;;;;;2.72;1.40;;;;;;;27.52;62.27;100701.75;5035569;28;20065;-62
2021/08/04 09:30:34;;;;;;;1.02;0.93;;;;;;;27.68;62.14;100697.81;5048062;28;20764;-61
2021/08/04 09:33:16;;;;;;;1.30;0.88;;;;;;;27.91;60.96;100695.63;5034425;28;20045;-63
2021/08/04 09:35:48;;;;;;;1.77;0.75;;;;;;;28.26;59.25;100688.53;5051118;28;20080;-62
2021/08/04 09:38:15;;;;;;;1.25;0.93;;;;;;;28.74;57.98;100699.97;5044859;28;20453;-62
2021/08/04 09:40:47;;;;;;;1.73;1.15;;;;;;;29.20;56.59;100691.63;5052370;28;20060;-62
2021/08/04 09:43:25;;;;;;;1.08;0.60;;;;;;;29.60;55.53;100697.50;5038312;28;20470;-61
2021/08/04 09:45:54;;;;;;;1.25;1.00;;;;;;;30.07;54.12;100709.91;5050766;28;20072;-61
2021/08/04 09:48:26;;;;;;;1.75;1.30;;;;;;;30.32;53.17;100696.34;5047188;28;20052;-61
2021/08/04 09:50:54;;;;;;;1.00;0.90;;;;;;;30.65;52.68;100711.56;5050959;28;20130;-62
2021/08/04 09:53:31;;;;;;;2.07;1.40;;;;;;;30.85;51.75;100680.25;5054097;28;20045;-61
2021/08/04 09:56:07;;;;;;;2.47;0.88;;;;;;;30.87;50.76;100700.81;5048438;28;20041;-62
2021/08/04 09:58:36;;;;;;;0.90;0.80;;;;;;;30.44;50.56;100681.53;5048715;28;20087;-62
2021/08/04 10:01:04;;;;;;;0.80;0.70;;;;;;;30.78;50.11;100694.69;5046388;28;20120;-62
2021/08/04 10:03:32;;;;;;;1.08;0.60;;;;;;;30.86;50.21;100704.94;5050877;28;20069;-62
2021/08/04 10:05:59;;;;;;;1.05;0.70;;;;;;;30.62;50.18;100704.56;5046825;28;20045;-62
2021/08/04 10:08:37;;;;;;;0.90;0.70;;;;;;;30.62;50.30;100712.38;5039874;28;20123;-63
2021/08/04 10:11:05;;;;;;;0.90;0.85;;;;;;;30.95;49.86;100704.53;5035702;28;20145;-65
2021/08/04 10:13:33;;;;;;;0.73;0.73;;;;;;;31.63;48.93;100700.09;5043058;28;20132;-64
2021/08/04 10:16:02;;;;;;;0.70;0.70;;;;;;;32.13;47.59;100701.84;5036708;28;20059;-62
2021/08/04 10:18:33;;;;;;;1.92;0.90;;;;;;;32.60;47.18;100707.22;5042078;28;20464;-62
2021/08/04 10:21:04;;;;;;;2.58;0.90;;;;;;;32.67;46.67;100713.75;5043623;28;20485;-62
2021/08/04 10:23:32;;;;;;;0.88;0.50;;;;;;;32.30;46.81;100718.19;5054292;28;20128;-64
2021/08/04 10:26:00;;;;;;;0.98;0.60;;;;;;;31.64;47.39;100712.47;5053111;28;20468;-63
2021/08/04 10:28:32;;;;;;;1.83;0.93;;;;;;;31.04;48.52;100714.34;5053862;28;20045;-62
2021/08/04 10:30:58;;;;;;;2.33;0.93;;;;;;;30.70;49.08;100722.66;5052375;28;20068;-63
2021/08/04 10:33:26;;;;;;;3.90;1.10;;;;;;;30.38;48.98;100668.78;5053703;28;20045;-62
2021/08/04 10:35:58;;;;;;;1.92;1.17;;;;;;;30.54;49.42;100708.69;5052670;28;20049;-62
2021/08/04 10:38:26;;;;;;;5.15;1.30;;;;;;;30.37;49.68;100718.19;5047694;28;20137;-62
2021/08/04 10:41:12;;;;;;;3.08;1.20;;;;;;;30.17;50.53;100720.63;5045568;28;20128;-62
2021/08/04 10:44:00;;;;;;;3.25;1.55;;;;;;;30.24;50.55;100723.53;5047397;28;20045;-63
2021/08/04 10:46:30;;;;;;;3.55;1.10;;;;;;;30.20;49.92;100716.97;5041539;28;20052;-62
2021/08/04 10:49:03;;;;;;;2.97;1.38;;;;;;;29.84;50.25;100727.56;5039960;28;20045;-61
2021/08/04 10:51:32;;;;;;;2.80;1.80;;;;;;;30.07;50.31;100722.25;5033427;28;20049;-63
2021/08/04 10:54:02;;;;;;;2.35;1.55;;;;;;;30.57;49.39;100721.47;5041409;28;20115;-63
2021/08/04 10:56:32;;;;;;;2.00;1.10;;;;;;;31.17;49.13;100726.28;5058508;28;20087;-62
2021/08/04 10:59:08;;;;;;;2.38;1.05;;;;;;;31.66;48.39;100727.31;5064119;28;20041;-62
2021/08/04 11:01:36;;;;;;;2.58;1.10;;;;;;;32.13;47.43;100727.84;5052438;28;20119;-62
2021/08/04 11:04:05;;;;;;;2.13;1.10;;;;;;;32.52;47.36;100723.84;5057125;28;20044;-62
2021/08/04 11:06:32;;;;;;;1.95;1.08;;;;;;;32.79;47.06;100721.09;5055712;28;20084;-62
2021/08/04 11:09:17;;;;;;;3.13;1.55;;;;;;;32.73;46.86;100712.03;5061898;28;20076;-63
2021/08/04 11:11:55;;;;;;;1.50;0.90;;;;;;;32.69;46.01;100722.84;5053703;28;20139;-62
2021/08/04 11:14:50;;;;;;;2.00;0.90;;;;;;;32.89;46.92;100725.94;5054197;28;20139;-62
2021/08/04 11:17:22;;;;;;;2.05;1.00;;;;;;;33.17;45.86;100742.16;5072225;28;20056;-61
2021/08/04 11:20:05;;;;;;;0.70;0.70;;;;;;;33.36;45.75;100726.19;5071222;28;20090;-60
2021/08/04 11:22:35;;;;;;;2.80;0.65;;;;;;;33.60;44.71;100723.44;5052103;28;20080;-62
2021/08/04 11:25:08;;;;;;;2.05;1.15;;;;;;;33.25;44.68;100723.44;5057706;28;20495;-61
2021/08/04 11:27:58;;;;;;;2.42;1.00;;;;;;;33.16;45.55;100723.13;5051953;28;20084;-62
2021/08/04 11:30:32;;;;;;;4.43;1.33;;;;;;;32.82;45.04;100723.09;5035384;28;20154;-62
2021/08/04 11:33:18;;;;;;;1.75;0.95;;;;;;;32.36;45.73;100720.63;5068550;28;20040;-62